This is the latest recevied weather packets stored in our database for station/object DO6MJ-1. If no packets are shown the sender has not sent any weather packets the latest 10 day(s).
| Time | Temp. | Humidity | Pressure | Rain* | Wind** | Luminosity | Snow |
|---|---|---|---|---|---|---|---|
| 1787737476 | 22.78° C | 58% | 1012.3 hPa | 0 mm | - | - | - |
| 1787736276 | 22.22° C | 59% | 1012.1 hPa | 0 mm | - | - | - |
| 1787735075 | 21.67° C | 60% | 1012 hPa | 0 mm | - | - | - |
| 1787733875 | 21.11° C | 62% | 1012.1 hPa | 0 mm | - | - | - |
| 1787732675 | 20.56° C | 63% | 1012.2 hPa | 0 mm | - | - | - |
| 1787731474 | 20° C | 63% | 1011.8 hPa | 0 mm | - | - | - |
| 1787730274 | 19.44° C | 66% | 1011.7 hPa | 0 mm | - | - | - |
| 1787729074 | 18.33° C | 69% | 1011.7 hPa | 0 mm | - | - | - |
| 1787727874 | 17.78° C | 70% | 1011.7 hPa | 0 mm | - | - | - |
| 1787726673 | 16.67° C | 72% | 1011.6 hPa | 0 mm | - | - | - |
| 1787725473 | 16.67° C | 72% | 1011.6 hPa | 0 mm | - | - | - |
| 1787724273 | 16.11° C | 74% | 1011.6 hPa | 0 mm | - | - | - |
| 1787723072 | 15.56° C | 75% | 1011.4 hPa | 0 mm | - | - | - |
| 1787721872 | 15° C | 77% | 1011.3 hPa | 0 mm | - | - | - |
| 1787720672 | 14.44° C | 77% | 1011.4 hPa | 0 mm | - | - | - |
| 1787719472 | 13.89° C | 78% | 1011.3 hPa | 0 mm | - | - | - |
| 1787718271 | 13.89° C | 77% | 1011 hPa | 0 mm | - | - | - |
| 1787717071 | 13.89° C | 76% | 1011 hPa | 0 mm | - | - | - |
| 1787715871 | 14.44° C | 74% | 1011.1 hPa | 0 mm | - | - | - |
| 1787714670 | 15° C | 73% | 1011.1 hPa | 0 mm | - | - | - |
| 1787713470 | 15.56° C | 73% | 1011.2 hPa | 0 mm | - | - | - |
| 1787712270 | 15.56° C | 73% | 1011.3 hPa | 0 mm | - | - | - |
| 1787711070 | 15.56° C | 73% | 1011.1 hPa | 0 mm | - | - | - |
| 1787709869 | 15.56° C | 72% | 1011.1 hPa | 0 mm | - | - | - |
| 1787708669 | 15.56° C | 72% | 1011.1 hPa | 0 mm | - | - | - |
* Rain latest hour (hover to see other rain measurements)
** Current wind speed in m/s (hover to see current wind gust speed)